Sao Jose do Jacuri, Brazil
Current Conditions -  °F | °C
As of 10:00 AM on Sunday 23 Nov 2014 (Local Time) from SBLS Reporting Station
Broken Clouds Broken Clouds  
Wind Chill: 75°   Ceiling: 1100
Heat Index: 75°   Visibility: 6mi
Dew Point: 66°   Wind: 2mph
Humidity: 73%   Direction: 30°NNE
Pressure: 30.06"   Gusts: NA
Location:  18.28°S, 42.68°W
Report Text: SBLS 231200Z 03002KT 9999 BKN011 SCT023 24/19 Q1018
Loading
Personal Weather Stations






























Interactive Weather Map New forecast layout! Learn more

10-Day Weather Forecast

Advertisements
Track Severe Weather on mobile